Time;durP1;ratioP1;P1;durP2;ratioP2;P2;SDS_P1;SDS_P2;PMS_P1;PMS_P2;Temp;Humidity;BMP_temperature;BMP_pressure;BME280_temperature;BME280_humidity;BME280_pressure;Samples;Min_cycle;Max_cycle;Signal;HPM_P1;HPM_P2
2023/07/25 00:00:34;;;;;;;1.30;1.30;;;20.80;93.40;;;;;;4930696;28;20686;-73
2023/07/25 00:02:59;;;;;;;1.50;1.40;;;20.80;93.50;;;;;;4914337;28;20478;-73
2023/07/25 00:05:25;;;;;;;1.73;1.63;;;20.80;93.50;;;;;;4915882;28;20761;-71
2023/07/25 00:07:51;;;;;;;2.20;1.80;;;20.70;93.60;;;;;;4930284;28;20231;-70
2023/07/25 00:10:18;;;;;;;3.50;2.00;;;20.50;93.90;;;;;;4926074;28;20255;-70
2023/07/25 00:12:44;;;;;;;3.50;1.60;;;20.60;93.80;;;;;;4898119;28;20236;-72
2023/07/25 00:15:10;;;;;;;2.87;1.90;;;20.60;94.10;;;;;;4916045;28;20487;-72
2023/07/25 00:17:37;;;;;;;2.73;1.90;;;20.70;93.80;;;;;;4913645;28;20479;-72
2023/07/25 00:20:02;;;;;;;1.80;1.70;;;20.70;93.70;;;;;;4928771;28;20529;-72
2023/07/25 00:22:28;;;;;;;3.03;1.73;;;20.70;93.80;;;;;;4929396;28;20594;-72
2023/07/25 00:24:54;;;;;;;2.63;2.10;;;20.60;93.70;;;;;;4911598;28;20247;-72
2023/07/25 00:27:19;;;;;;;2.10;1.67;;;20.70;93.80;;;;;;4915771;28;20708;-70
2023/07/25 00:29:47;;;;;;;1.90;1.80;;;20.70;93.80;;;;;;4912487;28;20232;-71
2023/07/25 00:32:12;;;;;;;2.30;1.67;;;20.70;93.70;;;;;;4913022;28;20350;-72
2023/07/25 00:34:38;;;;;;;2.30;1.57;;;20.70;93.80;;;;;;4914734;28;20474;-71
2023/07/25 00:37:04;;;;;;;1.90;1.70;;;20.70;93.80;;;;;;4929329;28;20229;-72
2023/07/25 00:39:30;;;;;;;4.87;2.00;;;20.70;93.90;;;;;;4913599;28;20223;-70
2023/07/25 00:41:55;;;;;;;1.60;1.50;;;20.60;93.80;;;;;;4929528;28;20565;-71
2023/07/25 00:44:21;;;;;;;1.50;1.40;;;20.60;93.80;;;;;;4914110;28;20286;-71
2023/07/25 00:46:47;;;;;;;1.80;1.70;;;20.60;94.00;;;;;;4911560;28;20231;-72
2023/07/25 00:49:13;;;;;;;1.53;1.40;;;20.60;94.00;;;;;;4913050;28;20718;-72
2023/07/25 00:51:38;;;;;;;1.80;1.67;;;20.60;94.00;;;;;;4928838;28;20273;-72
2023/07/25 00:54:05;;;;;;;1.73;1.50;;;20.60;94.00;;;;;;4929874;28;20307;-71
2023/07/25 00:56:31;;;;;;;1.80;1.50;;;20.60;94.00;;;;;;4929069;28;20224;-72
2023/07/25 00:58:57;;;;;;;1.70;1.60;;;20.60;94.00;;;;;;4913139;28;20471;-71
2023/07/25 01:01:23;;;;;;;2.07;1.53;;;20.60;94.00;;;;;;4929357;28;21077;-71
2023/07/25 01:03:50;;;;;;;1.70;1.60;;;20.60;94.50;;;;;;4927115;28;20220;-72
2023/07/25 01:06:17;;;;;;;1.70;1.43;;;20.50;94.00;;;;;;4913286;28;20494;-72
2023/07/25 01:08:54;;;;;;;2.27;1.63;;;20.50;94.50;;;;;;4912317;28;20463;-71
2023/07/25 01:11:21;;;;;;;1.63;1.53;;;20.40;94.50;;;;;;4928579;28;21111;-70
2023/07/25 01:13:47;;;;;;;1.87;1.50;;;20.50;94.50;;;;;;4928937;28;20542;-72
2023/07/25 01:16:33;;;;;;;1.23;1.13;;;20.50;94.50;;;;;;4912317;28;20534;-70
2023/07/25 01:19:00;;;;;;;1.70;1.60;;;20.40;94.40;;;;;;4929033;28;20467;-71
2023/07/25 01:21:27;;;;;;;1.50;1.40;;;20.30;94.90;;;;;;4929378;28;20576;-72
2023/07/25 01:23:52;;;;;;;1.93;1.53;;;20.30;94.90;;;;;;4928649;28;21084;-71
2023/07/25 01:26:18;;;;;;;1.83;1.73;;;20.40;95.00;;;;;;4913609;28;20326;-71
2023/07/25 01:28:44;;;;;;;1.53;1.43;;;20.40;94.90;;;;;;4911365;28;20220;-72
2023/07/25 01:31:10;;;;;;;1.53;1.43;;;20.40;94.90;;;;;;4928161;28;20220;-71
2023/07/25 01:33:36;;;;;;;1.83;1.70;;;20.40;95.00;;;;;;4928115;28;20251;-71
2023/07/25 01:36:02;;;;;;;1.80;1.70;;;20.40;95.20;;;;;;4902231;28;20215;-71
2023/07/25 01:38:27;;;;;;;2.43;1.57;;;20.40;95.50;;;;;;4928087;28;20486;-71
2023/07/25 01:40:53;;;;;;;1.67;1.57;;;20.40;95.80;;;;;;4912005;28;20680;-71
2023/07/25 01:43:19;;;;;;;1.77;1.67;;;20.40;96.30;;;;;;4928138;28;20314;-70
2023/07/25 01:45:44;;;;;;;2.50;2.00;;;20.50;96.70;;;;;;4912260;28;20317;-71
2023/07/25 01:48:10;;;;;;;1.93;1.53;;;20.50;96.80;;;;;;4913908;28;20262;-70
2023/07/25 01:50:36;;;;;;;1.50;1.40;;;20.50;97.10;;;;;;4927713;28;20238;-72
2023/07/25 01:53:01;;;;;;;1.83;1.73;;;20.40;97.30;;;;;;4912716;28;20231;-71
2023/07/25 01:55:27;;;;;;;2.10;1.83;;;20.50;97.00;;;;;;4912082;28;20235;-70
2023/07/25 01:57:53;;;;;;;2.53;1.40;;;20.50;97.40;;;;;;4911907;28;20227;-71
2023/07/25 02:00:18;;;;;;;3.17;1.97;;;20.50;97.60;;;;;;4927725;28;20624;-70
2023/07/25 02:02:44;;;;;;;3.03;1.70;;;20.40;97.80;;;;;;4911886;28;20234;-70
2023/07/25 02:05:10;;;;;;;1.90;1.80;;;20.40;98.20;;;;;;4909356;28;20315;-71
2023/07/25 02:07:36;;;;;;;1.67;1.57;;;20.40;98.10;;;;;;4912805;28;20702;-70
2023/07/25 02:10:02;;;;;;;2.17;1.97;;;20.40;98.80;;;;;;4928210;28;20236;-72
2023/07/25 02:12:29;;;;;;;1.40;1.30;;;20.30;98.70;;;;;;4910709;28;20466;-70
2023/07/25 02:14:55;;;;;;;1.50;1.40;;;20.30;99.30;;;;;;4913131;28;20224;-70
2023/07/25 02:17:20;;;;;;;2.23;1.77;;;20.30;99.40;;;;;;4912461;28;20546;-70
2023/07/25 02:19:46;;;;;;;8.43;2.10;;;20.30;99.70;;;;;;4928395;28;20247;-70
2023/07/25 02:22:12;;;;;;;2.17;2.00;;;20.30;99.80;;;;;;4928238;28;20281;-71
2023/07/25 02:24:38;;;;;;;1.90;1.70;;;20.30;99.60;;;;;;4913188;28;20463;-70
2023/07/25 02:27:04;;;;;;;3.10;2.10;;;20.30;99.70;;;;;;4929939;28;20735;-71
2023/07/25 02:29:30;;;;;;;1.93;1.73;;;20.30;99.60;;;;;;4914886;28;20330;-70
2023/07/25 02:31:56;;;;;;;1.53;1.43;;;20.30;99.70;;;;;;4916892;28;20793;-70
2023/07/25 02:34:22;;;;;;;2.47;2.00;;;20.30;99.90;;;;;;4912759;28;20459;-70
2023/07/25 02:36:47;;;;;;;1.57;1.47;;;20.30;99.90;;;;;;4912354;28;20234;-70
2023/07/25 02:39:13;;;;;;;2.07;1.57;;;20.30;99.90;;;;;;4930187;28;20307;-71
2023/07/25 02:41:38;;;;;;;1.80;1.70;;;20.30;99.90;;;;;;4911596;28;20759;-70
2023/07/25 02:44:04;;;;;;;1.97;1.80;;;20.20;99.90;;;;;;4927742;28;20231;-70
2023/07/25 02:46:30;;;;;;;2.40;2.10;;;20.30;99.90;;;;;;4912231;28;20316;-71
2023/07/25 02:48:56;;;;;;;2.57;1.57;;;20.20;99.90;;;;;;4912361;28;20546;-71
2023/07/25 02:51:21;;;;;;;2.30;1.90;;;20.30;99.90;;;;;;4928064;28;20223;-70
2023/07/25 02:53:47;;;;;;;1.37;1.27;;;20.30;99.90;;;;;;4912850;28;20220;-71
2023/07/25 02:56:13;;;;;;;2.00;1.90;;;20.30;99.90;;;;;;4929989;28;21084;-70
2023/07/25 02:58:38;;;;;;;1.80;1.70;;;20.30;99.90;;;;;;4929781;28;20274;-70
2023/07/25 03:01:04;;;;;;;2.10;1.97;;;20.20;99.90;;;;;;4912787;28;20239;-70
2023/07/25 03:03:30;;;;;;;1.93;1.80;;;20.10;99.90;;;;;;4913571;28;20220;-71
2023/07/25 03:05:55;;;;;;;2.40;1.90;;;20.10;99.90;;;;;;4928044;28;20235;-71
2023/07/25 03:08:21;;;;;;;1.83;1.40;;;20.10;99.90;;;;;;4904172;28;20248;-70
2023/07/25 03:10:47;;;;;;;1.70;1.60;;;20.10;99.90;;;;;;4928426;28;20285;-70
2023/07/25 03:13:13;;;;;;;2.07;1.87;;;20.10;99.90;;;;;;4913924;28;20228;-70
2023/07/25 03:15:38;;;;;;;2.33;2.13;;;20.00;99.90;;;;;;4912660;28;20224;-71
2023/07/25 03:18:04;;;;;;;1.70;1.60;;;19.90;99.90;;;;;;4912748;28;20235;-69
2023/07/25 03:20:30;;;;;;;2.83;2.10;;;20.00;99.90;;;;;;4932460;28;20732;-69
2023/07/25 03:22:55;;;;;;;2.10;1.90;;;20.00;99.90;;;;;;4932896;28;20314;-70
2023/07/25 03:25:21;;;;;;;2.67;1.97;;;20.00;99.90;;;;;;4931596;28;20736;-69
2023/07/25 03:27:47;;;;;;;2.23;1.90;;;20.10;99.90;;;;;;4916492;28;20931;-69
2023/07/25 03:30:13;;;;;;;3.07;1.87;;;20.10;99.90;;;;;;4932904;28;20228;-69
2023/07/25 03:32:38;;;;;;;1.40;1.30;;;20.10;99.90;;;;;;4932617;28;20224;-71
2023/07/25 03:35:05;;;;;;;2.50;2.30;;;20.10;99.90;;;;;;4916365;28;20231;-70
2023/07/25 03:37:30;;;;;;;2.43;2.23;;;20.10;99.90;;;;;;4933067;28;20244;-70
2023/07/25 03:39:56;;;;;;;2.50;2.13;;;20.10;99.90;;;;;;4916413;28;20522;-70
2023/07/25 03:42:22;;;;;;;2.13;1.83;;;20.10;99.90;;;;;;4933457;28;20234;-70
2023/07/25 03:44:47;;;;;;;2.60;2.40;;;20.00;99.90;;;;;;4931015;28;20223;-69
2023/07/25 03:47:13;;;;;;;1.93;1.80;;;20.00;99.90;;;;;;4916532;28;20797;-69
2023/07/25 03:49:39;;;;;;;2.10;1.97;;;20.00;99.90;;;;;;4932135;28;20227;-70
2023/07/25 03:52:05;;;;;;;1.97;1.77;;;20.00;99.90;;;;;;4932244;28;20240;-70
2023/07/25 03:54:31;;;;;;;2.90;2.40;;;20.00;99.90;;;;;;4915760;28;20302;-70
2023/07/25 03:56:56;;;;;;;2.13;1.90;;;20.00;99.90;;;;;;4932376;28;20231;-70
2023/07/25 03:59:22;;;;;;;2.00;1.80;;;19.90;99.90;;;;;;4932404;28;20267;-69
2023/07/25 04:01:48;;;;;;;2.07;1.87;;;19.90;99.90;;;;;;4915200;28;20228;-70
2023/07/25 04:04:13;;;;;;;3.00;2.70;;;19.90;99.90;;;;;;4917073;28;20224;-70
2023/07/25 04:06:39;;;;;;;2.43;2.23;;;19.90;99.90;;;;;;4916089;28;20299;-70
2023/07/25 04:09:05;;;;;;;2.87;2.00;;;19.80;99.90;;;;;;4915272;28;20706;-71
2023/07/25 04:11:30;;;;;;;1.80;1.70;;;19.80;99.90;;;;;;4904062;28;20737;-70
2023/07/25 04:13:56;;;;;;;2.40;2.20;;;19.70;99.90;;;;;;4932268;28;20366;-69
2023/07/25 04:16:22;;;;;;;6.63;2.00;;;19.60;99.90;;;;;;4915981;28;20246;-70
2023/07/25 04:18:48;;;;;;;2.10;1.90;;;19.60;99.90;;;;;;4916707;28;20224;-70
2023/07/25 04:21:14;;;;;;;3.27;2.50;;;19.60;99.90;;;;;;4920930;28;20231;-70
2023/07/25 04:23:40;;;;;;;2.30;2.10;;;19.50;99.90;;;;;;4932043;28;20550;-70
2023/07/25 04:26:06;;;;;;;2.50;2.30;;;19.50;99.90;;;;;;4930438;28;20558;-70
2023/07/25 04:28:31;;;;;;;2.80;2.60;;;19.60;99.90;;;;;;4931534;28;20228;-71
2023/07/25 04:30:57;;;;;;;3.43;2.90;;;19.60;99.90;;;;;;4930748;28;20820;-71
2023/07/25 04:33:23;;;;;;;3.37;3.07;;;19.50;99.90;;;;;;4931102;28;20239;-71
2023/07/25 04:35:48;;;;;;;3.73;2.57;;;19.40;99.90;;;;;;4930779;28;20228;-70
2023/07/25 04:38:14;;;;;;;3.10;2.80;;;19.40;99.90;;;;;;4916331;28;20278;-70
2023/07/25 04:40:42;;;;;;;2.90;2.67;;;19.40;99.90;;;;;;4931800;28;20314;-69
2023/07/25 04:43:08;;;;;;;3.00;2.70;;;19.40;99.90;;;;;;4929768;28;20236;-70
2023/07/25 04:45:33;;;;;;;2.40;2.30;;;19.40;99.90;;;;;;4932406;28;20483;-69
2023/07/25 04:47:59;;;;;;;2.67;2.47;;;19.40;99.90;;;;;;4915202;28;20235;-69
2023/07/25 04:50:25;;;;;;;2.40;2.20;;;19.40;99.90;;;;;;4915901;28;20228;-70
2023/07/25 04:52:51;;;;;;;3.00;2.70;;;19.50;99.90;;;;;;4918105;28;20227;-69
2023/07/25 04:55:16;;;;;;;3.63;2.67;;;19.60;99.90;;;;;;4916208;28;20428;-70
2023/07/25 04:57:42;;;;;;;2.77;2.57;;;19.60;99.90;;;;;;4916905;28;20618;-70
2023/07/25 05:00:08;;;;;;;3.03;2.73;;;19.60;99.90;;;;;;4931276;28;20242;-70
2023/07/25 05:02:34;;;;;;;3.77;2.90;;;19.60;99.90;;;;;;4916822;28;20232;-70
2023/07/25 05:05:00;;;;;;;3.10;2.80;;;19.60;99.90;;;;;;4930582;28;21219;-69
2023/07/25 05:07:25;;;;;;;3.87;2.40;;;19.60;99.90;;;;;;4931786;28;20761;-69
2023/07/25 05:09:51;;;;;;;3.40;3.10;;;19.60;99.90;;;;;;4912463;28;20870;-69
2023/07/25 05:12:17;;;;;;;3.33;3.03;;;19.60;99.90;;;;;;4931838;28;20725;-70
2023/07/25 05:14:42;;;;;;;3.50;3.20;;;19.60;99.90;;;;;;4930570;28;20247;-69
2023/07/25 05:17:08;;;;;;;2.90;2.70;;;19.60;99.90;;;;;;4931227;28;20249;-69
2023/07/25 05:19:34;;;;;;;4.43;3.43;;;19.60;99.90;;;;;;4916136;28;20232;-70
2023/07/25 05:21:59;;;;;;;4.17;3.77;;;19.60;99.90;;;;;;4914149;28;20232;-70
2023/07/25 05:24:25;;;;;;;5.20;3.90;;;19.50;99.90;;;;;;4915696;28;20294;-70
2023/07/25 05:26:51;;;;;;;4.17;3.27;;;19.50;99.90;;;;;;4914436;28;20227;-70
2023/07/25 05:29:17;;;;;;;5.03;2.93;;;19.50;99.90;;;;;;4918193;28;20503;-71
2023/07/25 05:31:43;;;;;;;5.60;2.60;;;19.60;99.90;;;;;;4914490;28;20477;-71
2023/07/25 05:34:08;;;;;;;3.83;2.90;;;19.60;99.90;;;;;;4915663;28;20237;-71
2023/07/25 05:36:34;;;;;;;3.50;2.60;;;19.50;99.90;;;;;;4921193;28;20340;-70
2023/07/25 05:39:00;;;;;;;3.37;3.07;;;19.50;99.90;;;;;;4913709;28;20236;-70
2023/07/25 05:41:25;;;;;;;4.63;3.40;;;19.50;99.90;;;;;;4915364;28;20236;-70
2023/07/25 05:43:51;;;;;;;3.27;2.97;;;19.50;99.90;;;;;;4896824;28;20231;-70
2023/07/25 05:46:17;;;;;;;3.13;2.83;;;19.50;99.90;;;;;;4929813;28;20231;-71
2023/07/25 05:48:42;;;;;;;2.80;2.60;;;19.60;99.90;;;;;;4915757;28;20247;-70
2023/07/25 05:51:09;;;;;;;4.80;2.90;;;19.50;99.90;;;;;;4929933;28;20239;-71
2023/07/25 05:53:35;;;;;;;3.60;3.10;;;19.60;99.90;;;;;;4914882;28;20317;-70
2023/07/25 05:56:01;;;;;;;2.60;2.40;;;19.60;99.90;;;;;;4913656;28;20474;-71
2023/07/25 05:58:28;;;;;;;2.83;2.63;;;19.60;99.90;;;;;;4914216;28;20511;-71
2023/07/25 06:00:54;;;;;;;8.00;3.37;;;19.60;99.90;;;;;;4913964;28;20554;-69
2023/07/25 06:03:19;;;;;;;2.53;2.33;;;19.60;99.90;;;;;;4915826;28;20480;-71
2023/07/25 06:05:45;;;;;;;3.30;3.00;;;19.60;99.90;;;;;;4929108;28;20227;-71
2023/07/25 06:08:11;;;;;;;3.93;2.90;;;19.60;99.90;;;;;;4914449;28;20238;-70
2023/07/25 06:10:37;;;;;;;4.30;3.40;;;19.60;99.90;;;;;;4931037;28;20780;-71
2023/07/25 06:13:04;;;;;;;4.33;3.00;;;19.70;99.90;;;;;;4930056;28;20250;-71
2023/07/25 06:15:34;;;;;;;2.93;2.73;;;19.70;99.90;;;;;;4929494;28;20467;-71
2023/07/25 06:18:01;;;;;;;4.40;4.00;;;19.60;99.90;;;;;;4915348;28;21063;-70
2023/07/25 06:20:27;;;;;;;4.80;4.20;;;19.60;99.90;;;;;;4914282;28;20490;-70
2023/07/25 06:22:52;;;;;;;6.90;3.80;;;19.60;99.90;;;;;;4931528;28;20467;-69
2023/07/25 06:25:18;;;;;;;4.83;3.77;;;19.60;99.90;;;;;;4930509;28;20227;-70
2023/07/25 06:27:44;;;;;;;8.03;4.17;;;19.50;99.90;;;;;;4915081;28;20228;-69
2023/07/25 06:30:10;;;;;;;4.93;4.40;;;19.60;99.90;;;;;;4914410;28;20236;-69
2023/07/25 06:32:37;;;;;;;5.23;4.73;;;19.60;99.90;;;;;;4914385;28;20870;-70
2023/07/25 06:35:04;;;;;;;5.20;4.03;;;19.60;99.90;;;;;;4914261;28;20239;-69
2023/07/25 06:37:32;;;;;;;5.53;3.97;;;19.60;99.90;;;;;;4914125;28;20468;-69
2023/07/25 06:40:00;;;;;;;4.97;4.47;;;19.50;99.90;;;;;;4915571;28;20491;-70
2023/07/25 06:42:28;;;;;;;5.50;3.90;;;19.50;99.90;;;;;;4914206;28;20475;-70
2023/07/25 06:44:54;;;;;;;6.10;4.43;;;19.50;99.90;;;;;;4898292;28;20590;-70
2023/07/25 06:47:20;;;;;;;5.10;4.10;;;19.50;99.90;;;;;;4898302;28;21193;-69
2023/07/25 06:49:46;;;;;;;5.90;5.03;;;19.40;99.90;;;;;;4930744;28;20570;-69
2023/07/25 06:52:11;;;;;;;6.00;4.90;;;19.40;99.90;;;;;;4930156;28;20239;-69
2023/07/25 06:54:42;;;;;;;5.90;4.87;;;19.40;99.90;;;;;;4918764;28;20231;-69
2023/07/25 06:57:08;;;;;;;5.90;4.80;;;19.40;99.90;;;;;;4921632;28;20235;-69
2023/07/25 06:59:34;;;;;;;5.37;4.80;;;19.40;99.90;;;;;;4916947;28;20522;-69
2023/07/25 07:01:59;;;;;;;5.17;4.27;;;19.40;99.90;;;;;;4915029;28;20244;-69
2023/07/25 07:04:25;;;;;;;4.97;4.43;;;19.30;99.90;;;;;;4931900;28;20222;-70
2023/07/25 07:06:50;;;;;;;4.83;3.80;;;19.30;99.90;;;;;;4931817;28;20729;-69
2023/07/25 07:09:16;;;;;;;6.23;4.57;;;19.30;99.90;;;;;;4915732;28;20254;-69
2023/07/25 07:11:42;;;;;;;6.50;4.20;;;19.20;99.90;;;;;;4917567;28;20931;-70
2023/07/25 07:14:07;;;;;;;5.40;3.80;;;19.20;99.90;;;;;;4913771;28;20232;-70
2023/07/25 07:16:33;;;;;;;5.57;4.07;;;19.20;99.90;;;;;;4932179;28;20266;-70
2023/07/25 07:18:59;;;;;;;3.93;3.50;;;19.20;99.90;;;;;;4931782;28;20230;-70
2023/07/25 07:21:25;;;;;;;3.90;3.43;;;19.20;99.90;;;;;;4919592;28;20949;-69
2023/07/25 07:23:51;;;;;;;4.50;3.50;;;19.10;99.90;;;;;;4915496;28;20356;-70
2023/07/25 07:26:16;;;;;;;4.90;4.20;;;19.10;99.90;;;;;;4917258;28;20227;-70
2023/07/25 07:28:42;;;;;;;5.40;3.90;;;18.90;99.90;;;;;;4916375;28;20294;-69
2023/07/25 07:31:09;;;;;;;4.67;3.93;;;18.90;99.90;;;;;;4931085;28;20254;-69
2023/07/25 07:33:35;;;;;;;4.67;3.70;;;18.70;99.90;;;;;;4917773;28;20232;-69
2023/07/25 07:36:01;;;;;;;7.87;5.20;;;18.60;99.90;;;;;;4916216;28;20486;-70
2023/07/25 07:38:27;;;;;;;5.00;4.40;;;18.40;99.90;;;;;;4921225;28;20391;-69
2023/07/25 07:40:52;;;;;;;7.47;4.07;;;18.30;99.90;;;;;;4915752;28;20982;-69
2023/07/25 07:43:18;;;;;;;5.83;4.73;;;18.20;99.90;;;;;;4931048;28;20689;-68
2023/07/25 07:45:44;;;;;;;5.17;4.53;;;18.30;99.90;;;;;;4932519;28;20231;-69
2023/07/25 07:48:10;;;;;;;5.00;4.00;;;18.10;99.90;;;;;;4932098;28;21149;-69
2023/07/25 07:50:35;;;;;;;5.57;4.00;;;17.90;99.90;;;;;;4916102;28;20232;-69
2023/07/25 07:53:01;;;;;;;5.23;3.93;;;17.80;99.90;;;;;;4916001;28;20236;-69
2023/07/25 07:55:28;;;;;;;3.80;3.50;;;17.70;99.90;;;;;;4931262;28;20239;-69
2023/07/25 07:57:55;;;;;;;3.77;3.10;;;17.70;99.90;;;;;;4915756;28;20247;-69
2023/07/25 08:00:21;;;;;;;3.83;3.47;;;17.60;99.90;;;;;;4915045;28;20594;-69
2023/07/25 08:02:47;;;;;;;3.10;2.80;;;17.60;99.90;;;;;;4916318;28;20471;-69
2023/07/25 08:05:13;;;;;;;3.90;3.20;;;17.60;99.90;;;;;;4915477;28;20582;-69
2023/07/25 08:07:39;;;;;;;4.23;3.23;;;17.70;99.90;;;;;;4932797;28;20279;-69
2023/07/25 08:10:04;;;;;;;2.87;2.67;;;17.70;99.90;;;;;;4914970;28;21009;-69
2023/07/25 08:12:30;;;;;;;4.23;3.60;;;17.80;99.90;;;;;;4917193;28;20475;-68
2023/07/25 08:14:56;;;;;;;3.33;3.03;;;17.70;99.90;;;;;;4914494;28;20266;-69
2023/07/25 08:17:22;;;;;;;3.40;2.90;;;17.70;99.90;;;;;;4916860;28;20231;-68
2023/07/25 08:19:49;;;;;;;3.40;3.10;;;17.60;99.90;;;;;;4917530;28;20233;-69
2023/07/25 08:22:14;;;;;;;6.53;3.17;;;17.60;99.90;;;;;;4916145;28;21052;-69
2023/07/25 08:24:40;;;;;;;3.13;2.57;;;17.70;99.90;;;;;;4930774;28;20476;-68
2023/07/25 08:27:07;;;;;;;4.57;2.67;;;17.60;99.90;;;;;;4915934;28;20228;-69
2023/07/25 08:29:32;;;;;;;4.10;2.93;;;17.60;99.90;;;;;;4915305;28;21106;-69
2023/07/25 08:31:58;;;;;;;3.30;2.97;;;17.60;99.90;;;;;;4916331;28;20475;-68
2023/07/25 08:34:24;;;;;;;2.70;2.50;;;17.60;99.90;;;;;;4930099;28;20302;-69
2023/07/25 08:36:49;;;;;;;3.10;2.77;;;17.70;99.90;;;;;;4929813;28;20325;-69
2023/07/25 08:39:15;;;;;;;3.63;2.83;;;17.70;99.90;;;;;;4929868;28;20446;-68
2023/07/25 08:41:49;;;;;;;3.40;2.70;;;17.70;99.90;;;;;;4915375;28;20243;-69
2023/07/25 08:44:17;;;;;;;3.20;2.47;;;17.80;99.90;;;;;;4916179;28;20255;-68
2023/07/25 08:46:45;;;;;;;2.53;2.07;;;17.80;99.90;;;;;;4915511;28;21095;-69
2023/07/25 08:49:15;;;;;;;2.40;2.20;;;17.80;99.90;;;;;;4915539;28;20479;-69
2023/07/25 08:51:47;;;;;;;2.40;2.20;;;17.80;99.90;;;;;;4925883;28;20479;-68
2023/07/25 08:54:24;;;;;;;2.63;2.43;;;17.80;99.90;;;;;;4907615;28;20694;-68
2023/07/25 08:56:50;;;;;;;2.83;2.57;;;17.90;99.90;;;;;;4889129;28;20518;-69
2023/07/25 08:59:18;;;;;;;3.07;2.80;;;18.00;99.90;;;;;;4923098;28;20474;-68
2023/07/25 09:01:44;;;;;;;3.37;3.07;;;17.80;99.90;;;;;;4903677;28;21095;-68
2023/07/25 09:04:11;;;;;;;8.30;3.07;;;17.90;99.90;;;;;;4910479;28;21155;-68
2023/07/25 09:06:37;;;;;;;3.37;2.30;;;18.00;99.90;;;;;;4905327;28;20482;-68
2023/07/25 09:09:04;;;;;;;3.00;2.20;;;18.10;99.90;;;;;;4923196;28;20511;-68
2023/07/25 09:11:32;;;;;;;2.37;2.17;;;18.10;99.90;;;;;;4908254;28;20234;-68
2023/07/25 09:13:58;;;;;;;4.40;2.60;;;18.10;99.90;;;;;;4906719;28;20475;-69
2023/07/25 09:16:24;;;;;;;2.40;2.20;;;18.20;99.90;;;;;;4906906;28;20969;-68
2023/07/25 09:18:49;;;;;;;3.27;2.97;;;18.10;99.90;;;;;;4919853;28;20224;-68
2023/07/25 09:21:15;;;;;;;4.10;3.20;;;18.00;99.90;;;;;;4922488;28;20247;-68
2023/07/25 09:23:55;;;;;;;2.70;2.13;;;18.10;99.90;;;;;;4904148;28;20357;-68
2023/07/25 09:26:29;;;;;;;3.50;2.90;;;18.00;99.90;;;;;;4890640;28;20542;-68
2023/07/25 09:28:59;;;;;;;5.37;2.90;;;18.00;99.90;;;;;;4905988;28;20470;-68
2023/07/25 09:31:25;;;;;;;3.90;2.77;;;18.10;99.90;;;;;;4895234;28;20618;-68
2023/07/25 09:33:53;;;;;;;3.70;3.40;;;18.20;99.90;;;;;;4905250;28;20469;-68
2023/07/25 09:36:19;;;;;;;7.37;4.10;;;18.20;99.90;;;;;;4906106;28;20554;-68
2023/07/25 09:38:49;;;;;;;5.43;3.23;;;18.20;99.90;;;;;;4888346;28;20504;-68
2023/07/25 09:41:16;;;;;;;5.27;3.60;;;18.20;99.90;;;;;;4907140;28;20495;-69
2023/07/25 09:43:43;;;;;;;3.30;3.00;;;18.20;99.90;;;;;;4919441;28;20491;-69
2023/07/25 09:46:10;;;;;;;5.20;2.40;;;18.20;99.90;;;;;;4922683;28;20542;-68
2023/07/25 09:48:35;;;;;;;2.70;2.47;;;18.20;99.90;;;;;;4905443;28;20640;-68
2023/07/25 09:51:02;;;;;;;3.60;2.50;;;18.20;99.90;;;;;;4922021;28;20553;-68
2023/07/25 09:53:29;;;;;;;2.80;2.60;;;18.40;99.90;;;;;;4923055;28;20307;-70
2023/07/25 09:55:55;;;;;;;2.40;2.20;;;18.20;99.90;;;;;;4918873;28;21091;-68
2023/07/25 09:58:22;;;;;;;2.60;2.40;;;18.30;99.90;;;;;;4921861;28;20562;-68
2023/07/25 10:00:48;;;;;;;2.40;2.30;;;18.20;99.90;;;;;;4903685;28;20487;-68
2023/07/25 10:03:16;;;;;;;2.47;2.27;;;18.30;99.90;;;;;;4906518;28;20487;-67
2023/07/25 10:05:43;;;;;;;3.43;2.57;;;18.30;99.90;;;;;;4903330;28;20530;-68
2023/07/25 10:08:11;;;;;;;2.30;2.10;;;18.30;99.90;;;;;;4921221;28;20476;-70
2023/07/25 10:10:37;;;;;;;3.90;2.67;;;18.30;99.90;;;;;;4903204;28;20950;-68
2023/07/25 10:13:02;;;;;;;2.23;2.03;;;18.30;99.90;;;;;;4921597;28;20523;-68
2023/07/25 10:15:29;;;;;;;2.37;2.17;;;18.40;99.90;;;;;;4904104;28;20223;-67
2023/07/25 10:18:18;;;;;;;1.97;1.87;;;18.50;99.90;;;;;;4917914;28;20286;-67
2023/07/25 10:20:44;;;;;;;2.37;2.17;;;18.50;99.90;;;;;;4900982;28;20479;-67
2023/07/25 10:23:11;;;;;;;2.70;2.50;;;18.50;99.90;;;;;;4905516;28;20483;-68
2023/07/25 10:25:37;;;;;;;2.70;2.50;;;18.60;99.90;;;;;;4901265;28;20697;-68
2023/07/25 10:28:04;;;;;;;2.97;2.40;;;18.70;99.90;;;;;;4909394;28;20503;-66
2023/07/25 10:30:32;;;;;;;2.87;2.50;;;18.70;99.90;;;;;;4910340;28;20474;-67
2023/07/25 10:33:03;;;;;;;2.47;2.27;;;18.70;99.90;;;;;;4907922;28;20861;-69
2023/07/25 10:35:46;;;;;;;2.50;2.30;;;18.70;99.90;;;;;;4910044;28;20475;-68
2023/07/25 10:38:14;;;;;;;1.97;1.87;;;18.60;99.90;;;;;;4907179;28;20470;-68
2023/07/25 10:40:59;;;;;;;3.43;2.37;;;18.60;99.90;;;;;;4889406;28;20545;-68
2023/07/25 10:43:51;;;;;;;2.00;1.90;;;18.60;99.90;;;;;;4908481;28;20550;-67
2023/07/25 10:46:19;;;;;;;2.40;2.20;;;18.70;99.90;;;;;;4925342;28;20459;-67
2023/07/25 10:48:46;;;;;;;1.83;1.67;;;18.70;99.90;;;;;;4911939;28;20586;-68
2023/07/25 10:51:15;;;;;;;2.43;2.23;;;18.70;99.90;;;;;;4925537;28;20526;-68
2023/07/25 10:53:41;;;;;;;2.00;1.80;;;18.60;99.90;;;;;;4906893;28;20941;-68
2023/07/25 10:56:08;;;;;;;3.10;2.40;;;18.70;99.90;;;;;;4923585;28;20474;-68
2023/07/25 10:58:37;;;;;;;2.10;1.90;;;18.70;99.90;;;;;;4921158;28;20467;-68
2023/07/25 11:01:03;;;;;;;2.20;2.00;;;18.70;99.90;;;;;;4908455;28;20620;-69
2023/07/25 11:03:34;;;;;;;1.77;1.67;;;18.70;99.90;;;;;;4907291;28;20576;-68
2023/07/25 11:06:20;;;;;;;1.90;1.80;;;18.70;99.90;;;;;;4922936;28;20240;-68
2023/07/25 11:08:46;;;;;;;2.40;2.20;;;18.70;99.90;;;;;;4897032;28;20926;-67
2023/07/25 11:11:13;;;;;;;1.70;1.60;;;18.70;99.90;;;;;;4924349;28;20470;-67
2023/07/25 11:13:41;;;;;;;2.10;2.00;;;18.70;99.90;;;;;;4920539;28;20271;-66
2023/07/25 11:16:09;;;;;;;2.33;2.10;;;18.70;99.90;;;;;;4919284;28;20478;-70
2023/07/25 11:18:37;;;;;;;2.27;2.07;;;18.70;99.90;;;;;;4903185;28;20475;-69
2023/07/25 11:21:05;;;;;;;1.70;1.60;;;18.80;99.90;;;;;;4907075;28;21277;-68
2023/07/25 11:23:31;;;;;;;2.10;1.90;;;18.90;99.90;;;;;;4906231;28;20471;-66
2023/07/25 11:25:59;;;;;;;2.00;1.90;;;18.90;99.90;;;;;;4904209;28;20843;-69
2023/07/25 11:28:25;;;;;;;2.27;2.10;;;19.00;99.90;;;;;;4921262;28;20471;-69
2023/07/25 11:30:51;;;;;;;2.33;2.13;;;19.10;99.90;;;;;;4916696;28;20478;-69
2023/07/25 11:33:18;;;;;;;2.00;1.70;;;19.10;99.90;;;;;;4907701;28;20231;-68
2023/07/25 11:35:44;;;;;;;1.80;1.70;;;19.20;99.90;;;;;;4902597;28;21167;-69
2023/07/25 11:38:10;;;;;;;2.27;1.70;;;19.30;99.90;;;;;;4905661;28;20469;-68
2023/07/25 11:40:38;;;;;;;2.03;1.93;;;19.40;99.90;;;;;;4900098;28;21023;-69
2023/07/25 11:43:11;;;;;;;1.63;1.53;;;19.30;99.90;;;;;;4920295;28;20490;-67
2023/07/25 11:45:37;;;;;;;2.27;2.10;;;19.20;99.90;;;;;;4904910;28;20487;-67
2023/07/25 11:48:08;;;;;;;2.63;2.43;;;19.30;99.90;;;;;;4907559;28;20515;-68
2023/07/25 11:50:34;;;;;;;2.03;1.80;;;19.30;99.90;;;;;;4903253;28;20598;-67
2023/07/25 11:53:01;;;;;;;1.77;1.67;;;19.30;99.90;;;;;;4923371;28;20499;-68
2023/07/25 11:55:28;;;;;;;2.50;2.30;;;19.30;99.90;;;;;;4922719;28;21005;-68
2023/07/25 11:57:54;;;;;;;2.00;1.90;;;19.20;99.90;;;;;;4905365;28;20475;-68
2023/07/25 12:00:21;;;;;;;2.00;1.90;;;19.40;99.90;;;;;;4907733;28;20530;-67
2023/07/25 12:02:47;;;;;;;1.93;1.83;;;19.60;99.90;;;;;;4903997;28;20602;-68
2023/07/25 12:05:31;;;;;;;1.97;1.87;;;19.80;99.90;;;;;;4907537;28;20479;-68
2023/07/25 12:08:02;;;;;;;1.90;1.80;;;19.50;99.90;;;;;;4908296;28;20240;-68
2023/07/25 12:10:30;;;;;;;2.07;1.87;;;19.40;99.90;;;;;;4909282;28;20471;-67
2023/07/25 12:12:56;;;;;;;2.00;1.90;;;19.40;99.90;;;;;;4920005;28;20480;-68
2023/07/25 12:15:45;;;;;;;4.53;2.03;;;19.40;99.90;;;;;;4905086;28;20474;-68
2023/07/25 12:18:27;;;;;;;1.63;1.53;;;19.50;99.90;;;;;;4898371;28;20610;-68
2023/07/25 12:20:54;;;;;;;2.23;2.03;;;19.50;99.90;;;;;;4929472;28;20546;-68
2023/07/25 12:23:30;;;;;;;2.10;1.90;;;19.40;99.90;;;;;;4930993;28;21076;-68
2023/07/25 12:25:57;;;;;;;2.13;1.93;;;19.30;99.90;;;;;;4914941;28;20586;-68
2023/07/25 12:28:23;;;;;;;1.93;1.83;;;19.30;99.90;;;;;;4914484;28;20472;-67
2023/07/25 12:30:49;;;;;;;1.70;1.60;;;19.40;99.90;;;;;;4915148;28;20472;-67
2023/07/25 12:33:15;;;;;;;2.00;1.80;;;19.30;99.90;;;;;;4914817;28;20584;-67
2023/07/25 12:35:41;;;;;;;2.10;1.90;;;19.40;99.90;;;;;;4915064;28;20256;-68
2023/07/25 12:38:06;;;;;;;2.13;1.97;;;19.40;99.90;;;;;;4914775;28;20219;-68
2023/07/25 12:40:32;;;;;;;2.40;2.20;;;19.60;99.90;;;;;;4911777;28;20232;-68
2023/07/25 12:42:58;;;;;;;1.60;1.50;;;19.60;99.90;;;;;;4928327;28;20794;-68
2023/07/25 12:45:23;;;;;;;2.37;2.17;;;19.70;99.90;;;;;;4913610;28;20231;-68